createdAt,value
2022-12-09T00:01:57.115Z,28.60
2022-12-09T00:04:32.933Z,27.03
2022-12-09T00:12:33.335Z,28.50
2022-12-09T00:17:50.101Z,28.27
2022-12-09T00:20:19.962Z,29.07
2022-12-09T00:22:50.592Z,29.10
2022-12-09T00:25:23.222Z,31.17
2022-12-09T00:28:00.166Z,30.77
2022-12-09T00:30:31.082Z,28.27
2022-12-09T00:33:02.941Z,30.47
2022-12-09T00:35:35.852Z,28.43
2022-12-09T00:38:09.655Z,31.07
2022-12-09T00:40:40.021Z,30.00
2022-12-09T00:43:12.853Z,30.13
2022-12-09T00:48:28.770Z,29.57
2022-12-09T00:51:00.784Z,30.83
2022-12-09T00:53:32.060Z,29.13
2022-12-09T00:56:07.134Z,29.10
2022-12-09T00:58:36.281Z,28.70
2022-12-09T01:01:04.863Z,24.47
2022-12-09T01:03:36.146Z,21.07
2022-12-09T01:06:20.230Z,20.10
2022-12-09T01:08:55.207Z,19.17
2022-12-09T01:11:36.544Z,17.63
2022-12-09T01:14:06.353Z,16.13
2022-12-09T01:16:36.048Z,16.07
2022-12-09T01:19:11.184Z,17.07
2022-12-09T01:21:38.942Z,16.40
2022-12-09T01:24:18.757Z,16.00
2022-12-09T01:29:45.044Z,16.57
2022-12-09T01:32:23.352Z,16.73
2022-12-09T01:34:52.424Z,17.50
2022-12-09T01:37:22.924Z,17.10
2022-12-09T01:42:36.408Z,16.43
2022-12-09T01:45:42.476Z,14.57
2022-12-09T01:48:27.896Z,13.63
2022-12-09T01:51:21.461Z,15.63
2022-12-09T01:56:36.092Z,13.43
2022-12-09T01:59:11.780Z,13.37
2022-12-09T02:01:45.049Z,13.47
2022-12-09T02:04:17.904Z,13.70
2022-12-09T02:06:48.402Z,13.60
2022-12-09T02:09:21.660Z,12.47
2022-12-09T02:12:21.618Z,12.60
2022-12-09T02:15:26.728Z,12.07
2022-12-09T02:18:24.685Z,12.57
2022-12-09T02:21:28.206Z,11.53
2022-12-09T02:24:26.372Z,14.43
2022-12-09T02:27:23.664Z,12.73
2022-12-09T02:30:10.936Z,12.87
2022-12-09T02:33:18.118Z,11.87
2022-12-09T02:36:12.328Z,11.63
2022-12-09T02:38:53.357Z,12.57
2022-12-09T02:41:28.793Z,11.60
2022-12-09T02:44:06.737Z,12.37
2022-12-09T02:46:39.035Z,12.10
2022-12-09T02:49:22.049Z,11.73
2022-12-09T02:51:53.879Z,11.73
2022-12-09T02:54:31.857Z,11.83
2022-12-09T02:57:09.736Z,11.50
2022-12-09T02:59:46.862Z,11.43
2022-12-09T03:02:32.732Z,11.80
2022-12-09T03:05:47.885Z,12.10
2022-12-09T03:08:31.833Z,11.27
2022-12-09T03:11:28.478Z,11.60
2022-12-09T03:14:38.347Z,12.00
2022-12-09T03:17:25.126Z,11.80
2022-12-09T03:20:03.745Z,11.67
2022-12-09T03:25:25.012Z,12.47
2022-12-09T03:28:30.552Z,12.33
2022-12-09T03:31:19.992Z,12.70
2022-12-09T03:33:54.031Z,11.90
2022-12-09T03:36:28.796Z,12.90
2022-12-09T03:39:00.851Z,15.77
2022-12-09T03:41:38.509Z,16.07
2022-12-09T03:44:16.313Z,17.37
2022-12-09T03:46:49.254Z,19.63
2022-12-09T03:49:21.186Z,18.83
2022-12-09T03:52:11.505Z,18.73
2022-12-09T03:54:56.045Z,18.83
2022-12-09T03:57:30.354Z,17.53
2022-12-09T04:00:12.732Z,18.20
2022-12-09T04:02:42.220Z,18.90
2022-12-09T04:05:14.609Z,19.67
2022-12-09T04:07:45.860Z,19.53
2022-12-09T04:10:18.834Z,19.63
2022-12-09T04:12:50.609Z,19.57
2022-12-09T04:15:31.592Z,19.73
2022-12-09T04:18:03.233Z,19.67
2022-12-09T04:20:33.353Z,19.47
2022-12-09T04:23:03.756Z,18.93
2022-12-09T04:25:37.014Z,19.10
2022-12-09T04:28:07.310Z,17.77
2022-12-09T04:30:39.827Z,18.80
2022-12-09T04:33:14.126Z,18.93
2022-12-09T04:35:46.879Z,18.93
2022-12-09T04:38:22.018Z,17.73
2022-12-09T04:41:04.980Z,19.10
2022-12-09T04:43:35.189Z,17.90
2022-12-09T04:46:12.735Z,16.53
2022-12-09T04:48:48.029Z,17.73
2022-12-09T04:51:22.953Z,19.10
2022-12-09T04:54:01.123Z,17.37
2022-12-09T04:56:31.570Z,16.33
2022-12-09T04:59:04.274Z,18.00
2022-12-09T05:01:34.634Z,17.60
2022-12-09T05:04:08.051Z,18.73
2022-12-09T05:06:39.580Z,15.93
2022-12-09T05:09:11.905Z,17.07
2022-12-09T05:11:46.429Z,15.80
2022-12-09T05:14:20.284Z,16.90
2022-12-09T05:16:55.361Z,16.87
2022-12-09T05:19:32.207Z,15.47
2022-12-09T05:22:01.789Z,16.77
2022-12-09T05:24:40.016Z,16.13
2022-12-09T05:27:12.184Z,15.57
2022-12-09T05:29:41.993Z,17.70
2022-12-09T05:32:10.508Z,17.93
2022-12-09T05:34:40.377Z,16.43
2022-12-09T05:37:15.399Z,16.37
2022-12-09T05:39:45.307Z,17.33
2022-12-09T05:42:17.191Z,18.80
2022-12-09T05:44:50.956Z,18.17
2022-12-09T05:47:20.629Z,16.93
2022-12-09T05:49:53.216Z,17.60
2022-12-09T05:52:26.206Z,17.93
2022-12-09T05:57:42.056Z,17.93
2022-12-09T06:00:14.572Z,17.03
2022-12-09T06:02:47.811Z,17.07
2022-12-09T06:05:21.233Z,18.13
2022-12-09T06:07:56.496Z,19.20
2022-12-09T06:10:33.362Z,20.93
2022-12-09T06:13:06.104Z,17.57
2022-12-09T06:15:46.208Z,19.53
2022-12-09T06:18:16.000Z,18.40
2022-12-09T06:20:49.114Z,18.53
2022-12-09T06:26:21.720Z,18.23
2022-12-09T06:31:42.285Z,17.53
2022-12-09T06:37:04.656Z,19.40
2022-12-09T06:42:27.065Z,18.60
2022-12-09T06:44:57.031Z,18.30
2022-12-09T06:47:29.011Z,17.70
2022-12-09T06:50:07.339Z,19.20
2022-12-09T06:52:40.793Z,19.47
2022-12-09T06:55:19.200Z,18.80
2022-12-09T06:57:49.319Z,22.50
2022-12-09T07:00:25.440Z,21.13
2022-12-09T07:02:57.441Z,19.83
2022-12-09T07:05:31.421Z,20.67
2022-12-09T07:08:08.553Z,21.27
2022-12-09T07:10:39.332Z,22.83
2022-12-09T07:13:13.309Z,22.13
2022-12-09T07:15:45.059Z,21.57
2022-12-09T07:18:23.051Z,20.13
2022-12-09T07:20:54.688Z,20.97
2022-12-09T07:23:30.132Z,21.53
2022-12-09T07:26:02.408Z,19.07
2022-12-09T07:28:41.854Z,20.80
2022-12-09T07:31:28.749Z,20.17
2022-12-09T07:34:03.092Z,19.07
2022-12-09T07:36:34.421Z,20.17
2022-12-09T07:39:06.363Z,20.40
2022-12-09T07:41:39.354Z,21.50
2022-12-09T07:44:08.730Z,20.53
2022-12-09T07:46:41.932Z,19.83
2022-12-09T07:49:12.254Z,21.20
2022-12-09T07:51:44.614Z,20.77
2022-12-09T07:54:21.339Z,20.10
2022-12-09T07:56:50.675Z,22.57
2022-12-09T07:59:21.115Z,21.47
2022-12-09T08:01:49.888Z,22.60
2022-12-09T08:04:19.432Z,22.27
2022-12-09T08:06:51.859Z,21.30
2022-12-09T08:09:21.024Z,25.07
2022-12-09T08:11:53.149Z,21.40
2022-12-09T08:14:27.737Z,22.27
2022-12-09T08:16:57.172Z,20.97
2022-12-09T08:19:26.313Z,22.47
2022-12-09T08:21:59.850Z,23.60
2022-12-09T08:24:32.675Z,24.33
2022-12-09T08:27:03.782Z,23.30
2022-12-09T08:29:34.410Z,25.40
2022-12-09T08:32:06.883Z,24.70
2022-12-09T08:34:45.258Z,22.90
2022-12-09T08:37:23.040Z,24.90
2022-12-09T08:39:52.180Z,21.33
2022-12-09T08:45:12.585Z,22.53
2022-12-09T08:47:51.628Z,21.03
2022-12-09T08:50:22.672Z,22.57
2022-12-09T08:52:51.961Z,24.30
2022-12-09T08:55:20.321Z,25.90
2022-12-09T08:57:52.619Z,33.87
2022-12-09T09:00:25.048Z,41.33
2022-12-09T09:02:53.025Z,37.47
2022-12-09T09:05:24.902Z,28.97
2022-12-09T09:07:56.863Z,24.53
2022-12-09T09:10:32.776Z,26.23
2022-12-09T09:13:06.346Z,27.83
2022-12-09T09:15:34.337Z,27.80
2022-12-09T09:18:04.653Z,26.60
2022-12-09T09:20:37.052Z,28.47
2022-12-09T09:23:08.192Z,25.93
2022-12-09T09:25:50.417Z,26.67
2022-12-09T09:28:19.279Z,27.47
2022-12-09T09:30:51.286Z,27.87
2022-12-09T09:33:22.493Z,28.23
2022-12-09T09:35:57.186Z,30.03
2022-12-09T09:38:26.488Z,31.23
2022-12-09T09:40:56.150Z,28.70
2022-12-09T09:43:29.096Z,30.77
2022-12-09T09:46:01.932Z,30.33
2022-12-09T09:48:43.163Z,32.77
2022-12-09T09:51:19.194Z,30.93
2022-12-09T09:53:56.440Z,32.57
2022-12-09T09:56:41.160Z,34.83
2022-12-09T09:59:38.786Z,33.93
2022-12-09T10:02:44.815Z,34.93
2022-12-09T10:05:33.154Z,33.07
2022-12-09T10:08:41.645Z,32.17
2022-12-09T10:11:35.256Z,31.97
2022-12-09T10:14:47.758Z,32.03
2022-12-09T10:17:54.289Z,36.23
2022-12-09T10:20:28.745Z,33.10
2022-12-09T10:23:05.945Z,29.67
2022-12-09T10:25:45.767Z,32.10
2022-12-09T10:28:30.628Z,31.43
2022-12-09T10:31:02.685Z,30.67
2022-12-09T10:33:36.215Z,31.30
2022-12-09T10:36:05.065Z,27.77
2022-12-09T10:38:40.524Z,25.30
2022-12-09T10:41:51.896Z,27.20
2022-12-09T10:44:23.345Z,27.10
2022-12-09T10:47:26.036Z,28.80
2022-12-09T10:49:58.447Z,24.60
2022-12-09T10:52:45.281Z,24.73
2022-12-09T10:55:37.481Z,22.77
2022-12-09T10:58:26.273Z,23.87
2022-12-09T11:01:15.330Z,25.70
2022-12-09T11:03:53.965Z,24.67
2022-12-09T11:06:41.829Z,22.73
2022-12-09T11:09:25.173Z,21.17
2022-12-09T11:11:56.236Z,21.90
2022-12-09T11:14:49.186Z,18.27
2022-12-09T11:17:22.568Z,20.23
2022-12-09T11:20:01.051Z,20.80
2022-12-09T11:22:46.752Z,18.60
2022-12-09T11:25:24.739Z,18.63
2022-12-09T11:28:03.395Z,18.10
2022-12-09T11:31:04.787Z,18.40
2022-12-09T11:33:39.337Z,16.53
2022-12-09T11:36:30.756Z,17.52
2022-12-09T11:39:31.784Z,15.33
2022-12-09T11:42:22.880Z,15.00
2022-12-09T11:45:11.135Z,17.30
2022-12-09T11:48:21.614Z,16.00
2022-12-09T11:50:40.873Z,13.87
2022-12-09T11:53:33.286Z,15.17
2022-12-09T11:56:10.272Z,14.10
2022-12-09T11:58:55.728Z,15.87
2022-12-09T12:01:35.541Z,12.83
2022-12-09T12:04:10.032Z,15.20
2022-12-09T12:07:02.402Z,14.07
2022-12-09T12:09:57.673Z,15.63
2022-12-09T12:13:12.030Z,13.47
2022-12-09T12:15:53.418Z,15.33
2022-12-09T12:18:22.828Z,15.57
2022-12-09T12:21:21.677Z,16.23
2022-12-09T12:24:10.409Z,14.00
2022-12-09T12:27:24.287Z,13.80
2022-12-09T12:30:20.384Z,15.20
2022-12-09T12:36:15.984Z,14.17
2022-12-09T12:39:08.515Z,14.90
2022-12-09T12:41:58.147Z,13.73
2022-12-09T12:45:14.924Z,13.93
2022-12-09T12:47:57.708Z,15.37
2022-12-09T12:50:33.794Z,14.13
2022-12-09T12:53:20.834Z,14.17
2022-12-09T12:56:01.575Z,13.00
2022-12-09T12:59:10.040Z,13.30
2022-12-09T13:02:28.803Z,16.77
2022-12-09T13:05:20.774Z,14.83
2022-12-09T13:08:19.471Z,14.73
2022-12-09T13:10:54.137Z,15.70
2022-12-09T13:13:33.325Z,15.03
2022-12-09T13:16:25.399Z,13.40
2022-12-09T13:19:01.254Z,15.20
2022-12-09T13:21:30.919Z,14.27
2022-12-09T13:24:44.311Z,12.77
2022-12-09T13:27:56.503Z,13.27
2022-12-09T13:30:51.080Z,13.30
2022-12-09T13:33:52.387Z,15.30
2022-12-09T13:36:50.546Z,13.80
2022-12-09T13:39:39.722Z,12.90
2022-12-09T13:42:47.090Z,13.40
2022-12-09T13:45:45.532Z,12.90
2022-12-09T13:48:17.633Z,13.73
2022-12-09T13:50:56.041Z,12.27
2022-12-09T13:54:00.100Z,13.33
2022-12-09T13:57:09.183Z,12.10
2022-12-09T13:59:49.507Z,13.83
2022-12-09T14:02:19.678Z,14.03
2022-12-09T14:04:58.125Z,13.80
2022-12-09T14:07:47.897Z,15.47
2022-12-09T14:10:34.072Z,15.23
2022-12-09T14:13:18.041Z,14.93
2022-12-09T14:15:46.342Z,13.87
2022-12-09T14:18:32.945Z,11.73
2022-12-09T14:21:18.517Z,10.00
2022-12-09T14:24:07.504Z,9.63
2022-12-09T14:26:43.702Z,9.20
2022-12-09T14:29:11.478Z,9.20
2022-12-09T14:32:26.637Z,10.27
2022-12-09T14:35:12.418Z,9.20
2022-12-09T14:37:51.983Z,9.27
2022-12-09T14:40:31.356Z,9.43
2022-12-09T14:43:32.692Z,9.17
2022-12-09T14:46:23.055Z,8.33
2022-12-09T14:49:13.538Z,8.00
2022-12-09T14:51:57.567Z,8.87
2022-12-09T14:54:34.987Z,9.63
2022-12-09T14:57:07.128Z,8.73
2022-12-09T14:59:35.130Z,7.90
2022-12-09T15:02:24.433Z,7.17
2022-12-09T15:04:53.604Z,7.03
2022-12-09T15:07:29.736Z,6.77
2022-12-09T15:09:58.903Z,5.53
2022-12-09T15:12:38.143Z,7.20
2022-12-09T15:15:33.753Z,7.23
2022-12-09T15:18:13.669Z,5.90
2022-12-09T15:20:42.240Z,6.23
2022-12-09T15:47:42.154Z,6.50
2022-12-09T15:50:21.619Z,6.17
2022-12-09T15:52:52.875Z,5.73
2022-12-09T15:55:52.897Z,6.03
2022-12-09T15:58:28.186Z,6.83
2022-12-09T16:01:02.333Z,5.50
2022-12-09T16:03:33.188Z,6.20
2022-12-09T16:06:08.534Z,6.53
2022-12-09T16:08:45.443Z,6.70
2022-12-09T16:11:14.694Z,6.67
2022-12-09T16:14:02.461Z,7.90
2022-12-09T16:16:52.518Z,9.00
2022-12-09T16:19:36.605Z,9.50
2022-12-09T16:22:34.965Z,10.00
2022-12-09T16:25:29.797Z,10.97
2022-12-09T16:28:06.880Z,11.83
2022-12-09T16:30:46.231Z,12.43
2022-12-09T16:33:21.363Z,13.47
2022-12-09T16:36:21.127Z,15.27
2022-12-09T16:39:07.925Z,16.47
2022-12-09T16:41:55.481Z,17.43
2022-12-09T16:44:37.417Z,17.60
2022-12-09T16:47:25.349Z,17.77
2022-12-09T16:49:53.709Z,15.97
2022-12-09T16:52:24.451Z,17.87
2022-12-09T16:54:52.660Z,19.97
2022-12-09T16:57:20.880Z,16.60
2022-12-09T16:59:49.255Z,14.37
2022-12-09T17:02:20.662Z,17.80
2022-12-09T17:04:49.495Z,21.33
2022-12-09T17:07:17.689Z,26.07
2022-12-09T17:09:45.921Z,20.10
2022-12-09T17:12:15.528Z,17.57
2022-12-09T17:14:46.894Z,20.30
2022-12-09T17:17:15.239Z,19.50
2022-12-09T17:19:43.355Z,23.50
2022-12-09T17:22:11.700Z,25.53
2022-12-09T17:24:41.630Z,32.27
2022-12-09T17:27:10.335Z,27.03
2022-12-09T17:29:40.116Z,22.20
2022-12-09T17:32:08.567Z,19.30
2022-12-09T17:34:37.070Z,15.50
2022-12-09T17:37:05.876Z,18.67
2022-12-09T17:39:34.792Z,18.67
2022-12-09T17:42:03.211Z,16.67
2022-12-09T17:44:34.094Z,15.47
2022-12-09T17:47:03.111Z,14.73
2022-12-09T17:49:31.397Z,15.60
2022-12-09T17:51:59.605Z,15.23
2022-12-09T17:54:27.635Z,17.13
2022-12-09T17:56:56.564Z,16.93
2022-12-09T17:59:24.753Z,19.67
2022-12-09T18:01:52.891Z,17.73
2022-12-09T18:04:20.814Z,17.63
2022-12-09T18:06:50.124Z,15.83
2022-12-09T18:09:19.036Z,15.07
2022-12-09T18:11:48.463Z,14.10
2022-12-09T18:14:16.263Z,13.33
2022-12-09T18:16:46.594Z,13.43
2022-12-09T18:19:17.014Z,13.87
2022-12-09T18:21:46.577Z,13.77
2022-12-09T18:24:14.669Z,14.37
2022-12-09T18:26:43.917Z,14.43
2022-12-09T18:29:12.564Z,15.30
2022-12-09T18:31:41.313Z,15.77
2022-12-09T18:34:08.823Z,15.07
2022-12-09T18:36:36.881Z,16.83
2022-12-09T18:39:05.267Z,15.00
2022-12-09T18:41:34.366Z,15.53
2022-12-09T18:44:04.776Z,13.93
2022-12-09T18:46:37.277Z,13.57
2022-12-09T18:49:17.082Z,12.67
2022-12-09T18:51:46.645Z,13.10
2022-12-09T18:54:18.110Z,12.00
2022-12-09T18:56:46.278Z,12.40
2022-12-09T18:59:14.068Z,11.77
2022-12-09T19:01:45.064Z,11.07
2022-12-09T19:04:30.023Z,11.17
2022-12-09T19:07:01.283Z,12.17
2022-12-09T19:09:35.143Z,12.70
2022-12-09T19:12:44.757Z,12.23
2022-12-09T19:14:55.618Z,11.97
2022-12-09T19:17:24.029Z,14.77
2022-12-09T19:19:53.640Z,13.73
2022-12-09T19:22:22.394Z,13.20
2022-12-09T19:24:50.942Z,12.37
2022-12-09T19:27:19.567Z,12.47
2022-12-09T19:29:47.536Z,15.90
2022-12-09T19:32:50.807Z,15.87
2022-12-09T19:35:07.984Z,13.50
2022-12-09T19:37:37.772Z,12.90
2022-12-09T19:40:07.109Z,13.57
2022-12-09T19:42:35.619Z,10.83
2022-12-09T19:45:12.167Z,11.80
2022-12-09T19:47:44.884Z,12.67
2022-12-09T19:50:14.651Z,11.03
2022-12-09T19:52:43.479Z,10.10
2022-12-09T19:55:20.154Z,13.40
2022-12-09T19:57:48.490Z,14.27
2022-12-09T20:00:17.237Z,12.23
2022-12-09T20:02:45.964Z,10.97
2022-12-09T20:05:14.855Z,11.30
2022-12-09T20:07:43.685Z,10.80
2022-12-09T20:10:12.201Z,11.63
2022-12-09T20:12:40.673Z,12.10
2022-12-09T20:15:09.212Z,13.87
2022-12-09T20:17:38.530Z,13.00
2022-12-09T20:20:07.564Z,12.47
2022-12-09T20:22:36.184Z,13.17
2022-12-09T20:25:04.828Z,12.03
2022-12-09T20:27:36.089Z,12.00
2022-12-09T20:30:08.808Z,10.27
2022-12-09T20:32:37.277Z,10.83
2022-12-09T20:35:08.740Z,11.33
2022-12-09T20:37:37.858Z,11.43
2022-12-09T20:40:07.403Z,10.33
2022-12-09T20:42:37.010Z,9.30
2022-12-09T20:45:06.520Z,7.37
2022-12-09T20:47:34.905Z,6.33
2022-12-09T20:50:03.284Z,6.63
2022-12-09T20:52:31.571Z,6.30
2022-12-09T20:54:59.758Z,5.90
2022-12-09T20:57:28.680Z,5.90
2022-12-09T20:59:57.176Z,5.43
2022-12-09T21:02:25.750Z,5.20
2022-12-09T21:04:53.884Z,5.30
2022-12-09T21:07:22.117Z,5.50
2022-12-09T21:09:50.194Z,6.20
2022-12-09T21:12:21.766Z,7.90
2022-12-09T21:14:51.149Z,7.00
2022-12-09T21:17:19.356Z,7.60
2022-12-09T21:19:50.449Z,7.53
2022-12-09T21:22:18.692Z,7.63
2022-12-09T21:24:51.696Z,7.50
2022-12-09T21:27:20.003Z,8.07
2022-12-09T21:29:48.323Z,8.03
2022-12-09T21:32:20.180Z,7.07
2022-12-09T21:34:47.992Z,7.00
2022-12-09T21:37:17.305Z,7.07
2022-12-09T21:39:45.595Z,7.20
2022-12-09T21:42:13.455Z,6.33
2022-12-09T21:44:42.785Z,6.30
2022-12-09T21:47:10.948Z,6.17
2022-12-09T21:49:38.745Z,5.73
2022-12-09T21:52:06.750Z,6.40
2022-12-09T21:54:34.339Z,6.37
2022-12-09T21:57:01.769Z,6.27
2022-12-09T21:59:30.697Z,6.90
2022-12-09T22:01:58.269Z,6.60
2022-12-09T22:04:26.101Z,6.77
2022-12-09T22:06:54.711Z,7.57
2022-12-09T22:09:22.468Z,7.00
2022-12-09T22:11:50.284Z,7.70
2022-12-09T22:14:17.830Z,8.00
2022-12-09T22:16:46.418Z,8.33
2022-12-09T22:19:17.278Z,8.30
2022-12-09T22:21:45.187Z,8.97
2022-12-09T22:24:14.257Z,8.83
2022-12-09T22:26:43.627Z,9.00
2022-12-09T22:29:13.323Z,8.63
2022-12-09T22:31:41.557Z,7.47
2022-12-09T22:34:15.880Z,7.03
2022-12-09T22:36:43.683Z,6.83
2022-12-09T22:39:21.608Z,7.30
2022-12-09T22:41:49.633Z,7.13
2022-12-09T22:44:19.017Z,7.00
2022-12-09T22:46:46.872Z,7.73
2022-12-09T22:49:15.409Z,9.53
2022-12-09T22:51:43.708Z,10.60
2022-12-09T22:54:11.986Z,10.50
2022-12-09T22:56:41.206Z,11.13
2022-12-09T22:59:09.407Z,12.47
2022-12-09T23:01:38.547Z,11.80
2022-12-09T23:04:07.817Z,11.33
2022-12-09T23:06:37.199Z,12.03
2022-12-09T23:09:09.778Z,11.13
2022-12-09T23:11:37.177Z,10.70
2022-12-09T23:14:05.354Z,10.00
2022-12-09T23:16:33.020Z,9.30
2022-12-09T23:19:00.440Z,8.23
2022-12-09T23:21:31.324Z,9.03
2022-12-09T23:24:01.280Z,8.30
2022-12-09T23:26:30.405Z,7.67
2022-12-09T23:29:00.533Z,7.83
2022-12-09T23:31:30.936Z,9.57
2022-12-09T23:33:58.977Z,9.93
2022-12-09T23:36:34.854Z,10.43
2022-12-09T23:39:04.378Z,9.90
2022-12-09T23:41:31.835Z,10.57
2022-12-09T23:43:59.179Z,10.83
2022-12-09T23:46:28.160Z,11.13
2022-12-09T23:48:56.466Z,11.47
2022-12-09T23:51:29.919Z,10.80
2022-12-09T23:53:59.945Z,12.73
2022-12-09T23:56:29.680Z,11.83
2022-12-09T23:59:00.476Z,12.77
